Volcan De Tauce — EAGW — position and weather

sailwx.info

Track history (hours):
 
Tides and Currents Weather Stations Pressure Air Temp Water Temp Dewpoint Dewpoint Depression Visibility Wind Speed Wind Dir Waves Ship Positions

Volcan De Tauce

Last reported at 2016-Dec-08 11:25 UTC. Time now 2016-Dec-08 11:57 UTC.
Position N 28°26' W 013°50'.

Length 120 m; draft 4.8 m.

Type: Passenger vessel. MMSI: 224761000.

Date/timePositionNaut miles runAvg speedWind from/ knotsBaromVisibWave heightAir tempDewpointWater temp
2016-Dec-08 11:25N 28°26' W 013°50'25 3.6
2016-Dec-08 04:32N 28°07' W 014°08'1515.0
2016-Dec-08 03:31N 28°01' W 014°23'1515.5
2016-Dec-08 02:34N 28°03' W 014°40'1615.6
2016-Dec-08 01:34N 28°05' W 014°58'1515.4
2016-Dec-08 00:34N 28°06' W 015°15'9 7.3
2016-Dec-07 23:21N 28°08' W 015°25'0 0.0
2016-Dec-07 22:31N 28°08' W 015°25'0 0.0
2016-Dec-07 21:33N 28°08' W 015°25'0 0.0
2016-Dec-07 20:33N 28°08' W 015°25'0 0.0
2016-Dec-07 19:33N 28°08' W 015°25'0 0.0
2016-Dec-07 18:33N 28°08' W 015°25'0 0.0
2016-Dec-07 17:33N 28°08' W 015°25'1212.0
2016-Dec-07 16:34N 28°06' W 015°11'1515.5
2016-Dec-07 15:34N 28°04' W 014°54'1615.8
2016-Dec-07 14:33N 28°02' W 014°36'2016.0
2016-Dec-07 13:18N 28°04' W 014°13'9 1.0
2016-Dec-07 04:33N 28°08' W 014°05'3414.7
2016-Dec-07 02:13N 28°03' W 014°43'1015.3
2016-Dec-07 01:33N 28°04' W 014°55'1515.6
2016-Dec-07 00:33N 28°06' W 015°12'1110.5
2016-Dec-06 23:29N 28°08' W 015°25'0 0.0
2016-Dec-06 22:26N 28°08' W 015°25'0 0.0
2016-Dec-06 21:33N 28°08' W 015°25'0 0.0
2016-Dec-06 20:33N 28°08' W 015°25'0 0.0
2016-Dec-06 18:33N 28°08' W 015°25'0 0.0
2016-Dec-06 17:33N 28°08' W 015°25'1312.8
2016-Dec-06 16:34N 28°06' W 015°11'1515.4
2016-Dec-06 15:33N 28°04' W 014°53'1615.6
2016-Dec-06 14:33N 28°02' W 014°36'2015.9
2016-Dec-06 13:18N 28°04' W 014°13'10 1.2
2016-Dec-06 05:17N 28°09' W 014°04'3914.4
2016-Dec-06 02:33N 28°03' W 014°48'1515.3
2016-Dec-06 01:34N 28°05' W 015°05'1515.2
2016-Dec-06 00:34N 28°07' W 015°22'2 2.4
2016-Dec-05 23:31N 28°08' W 015°25'0 0.0
2016-Dec-05 22:31N 28°08' W 015°25'0 0.0
2016-Dec-05 21:33N 28°08' W 015°25'0 0.0
2016-Dec-05 20:33N 28°08' W 015°25'0 0.0
2016-Dec-05 19:33N 28°08' W 015°25'0 0.0
2016-Dec-05 18:33N 28°08' W 015°25'0 0.0
2016-Dec-05 17:33N 28°08' W 015°25'0 0.0
2016-Dec-05 16:33N 28°08' W 015°25'0 0.0
2016-Dec-05 15:33N 28°08' W 015°25'0 0.0
2016-Dec-05 14:33N 28°08' W 015°25'0 0.0
2016-Dec-05 13:33N 28°08' W 015°25'0 0.0
2016-Dec-05 12:33N 28°08' W 015°25'0 0.0
2016-Dec-05 11:33N 28°08' W 015°25'0 0.0
2016-Dec-05 10:33N 28°08' W 015°25'0 0.0
2016-Dec-05 09:33N 28°08' W 015°25'0 0.0
2016-Dec-05 08:33N 28°08' W 015°25'0 0.0
2016-Dec-05 07:33N 28°08' W 015°25'0 0.0
2016-Dec-05 06:33N 28°08' W 015°25'0 0.0
2016-Dec-05 05:33N 28°08' W 015°25'0 0.0
2016-Dec-05 04:33N 28°08' W 015°25'0 0.0
2016-Dec-05 03:33N 28°08' W 015°25'0 0.0
2016-Dec-05 02:33N 28°08' W 015°25'0 0.0
2016-Dec-05 01:33N 28°08' W 015°25'0 0.0
2016-Dec-05 00:33N 28°08' W 015°25'0 0.0
2016-Dec-04 23:33N 28°08' W 015°25'0 0.0
2016-Dec-04 22:33N 28°08' W 015°25'0 0.0
2016-Dec-04 21:33N 28°08' W 015°25'0 0.0
2016-Dec-04 20:33N 28°08' W 015°25'0 0.0
2016-Dec-04 19:33N 28°08' W 015°25'0 0.0
2016-Dec-04 18:33N 28°08' W 015°25'0 0.0
2016-Dec-04 17:33N 28°08' W 015°25'0 0.0
2016-Dec-04 16:33N 28°08' W 015°25'0 0.0
2016-Dec-04 15:33N 28°08' W 015°25'0 0.0
2016-Dec-04 14:33N 28°08' W 015°25'0 0.0
2016-Dec-04 13:33N 28°08' W 015°25'0 0.0
2016-Dec-04 12:33N 28°08' W 015°25'0 0.0
2016-Dec-04 11:33N 28°08' W 015°25'0 0.0
2016-Dec-04 10:33N 28°08' W 015°25'0 0.0
2016-Dec-04 09:33N 28°08' W 015°25'0 0.0
2016-Dec-04 08:33N 28°08' W 015°25'0 0.0
2016-Dec-04 07:33N 28°08' W 015°25'0 0.0
2016-Dec-04 06:33N 28°08' W 015°25'0 0.0
2016-Dec-04 05:33N 28°08' W 015°25'0 0.0
2016-Dec-04 04:33N 28°08' W 015°25'0 0.0
2016-Dec-04 03:33N 28°08' W 015°25'0 0.0
2016-Dec-04 02:33N 28°08' W 015°25'0 0.0
2016-Dec-04 01:33N 28°08' W 015°25'0 0.0
2016-Dec-04 00:33N 28°08' W 015°25'0 0.0
2016-Dec-03 23:33N 28°08' W 015°25'0 0.0
2016-Dec-03 22:33N 28°08' W 015°25'0 0.0
2016-Dec-03 21:33N 28°08' W 015°25'0 0.0
2016-Dec-03 20:33N 28°08' W 015°25'0 0.0
2016-Dec-03 19:33N 28°08' W 015°25'0 0.0
2016-Dec-03 18:33N 28°08' W 015°25'4 4.0
2016-Dec-03 17:33N 28°07' W 015°21'1615.7
2016-Dec-03 16:33N 28°05' W 015°03'1515.3
2016-Dec-03 15:33N 28°03' W 014°46'1515.0
2016-Dec-03 14:33N 28°02' W 014°29'1514.4
2016-Dec-03 13:33N 28°04' W 014°12'3014.0
2016-Dec-03 11:24N 28°26' W 013°49'21 3.5
2016-Dec-03 05:22N 28°09' W 014°03'1616.4
2016-Dec-03 04:22N 28°01' W 014°19'1415.7
2016-Dec-03 03:28N 28°02' W 014°35'1516.1
2016-Dec-03 02:33N 28°04' W 014°52'1615.8
2016-Dec-03 01:33N 28°06' W 015°10'1413.6
2016-Dec-03 00:33N 28°08' W 015°25'0 0.1
2016-Dec-02 23:33N 28°08' W 015°25'0 0.0
2016-Dec-02 22:33N 28°08' W 015°25'0 0.0
2016-Dec-02 21:33N 28°08' W 015°25'0 0.0
2016-Dec-02 20:33N 28°08' W 015°25'0 0.0
2016-Dec-02 19:33N 28°08' W 015°25'0 0.0
2016-Dec-02 18:33N 28°08' W 015°25'3 2.9
2016-Dec-02 17:33N 28°07' W 015°22'1515.5
2016-Dec-02 16:33N 28°06' W 015°04'1514.8
2016-Dec-02 15:33N 28°04' W 014°48'1514.9
2016-Dec-02 14:33N 28°02' W 014°31'1514.9
2016-Dec-02 13:33N 28°04' W 014°14'1515.6
2016-Dec-02 12:33N 28°11' W 013°59'3 0.4
2016-Dec-02 05:21N 28°13' W 013°56'2015.9
2016-Dec-02 04:07N 28°03' W 014°15'915.4
2016-Dec-02 03:33N 28°01' W 014°25'1615.6
2016-Dec-02 02:33N 28°03' W 014°42'1615.7
2016-Dec-02 01:33N 28°05' W 014°60'1615.8
2016-Dec-02 00:33N 28°06' W 015°18'7 6.6
2016-Dec-01 23:33N 28°08' W 015°25'0 0.0
2016-Dec-01 22:33N 28°08' W 015°25'0 0.0
2016-Dec-01 21:33N 28°08' W 015°25'0 0.0
2016-Dec-01 20:33N 28°08' W 015°25'0 0.0
2016-Dec-01 19:33N 28°08' W 015°25'0 0.0
2016-Dec-01 18:33N 28°08' W 015°25'3 3.0
2016-Dec-01 17:33N 28°07' W 015°22'1615.5
2016-Dec-01 16:33N 28°05' W 015°04'1515.3
2016-Dec-01 15:33N 28°03' W 014°47'1515.2
2016-Dec-01 14:33N 28°02' W 014°30'1515.2
2016-Dec-01 13:33N 28°04' W 014°13'1616.0
2016-Dec-01 12:33N 28°12' W 013°57'17 2.7
2016-Dec-01 06:25N 28°27' W 013°50'5413.5
2016-Dec-01 02:25N 28°03' W 014°45'1416.0
2016-Dec-01 01:33N 28°05' W 015°00'1616.0
2016-Dec-01 00:33N 28°06' W 015°18'6 6.2
2016-Nov-30 23:33N 28°08' W 015°25'0 0.0
2016-Nov-30 22:33N 28°08' W 015°25'0 0.0
2016-Nov-30 21:33N 28°08' W 015°25'0 0.0
2016-Nov-30 20:33N 28°08' W 015°25'0 0.0
2016-Nov-30 19:33N 28°08' W 015°25'0 0.0
2016-Nov-30 18:34N 28°08' W 015°25'4 3.9
2016-Nov-30 17:33N 28°07' W 015°21'1515.4
2016-Nov-30 16:33N 28°05' W 015°03'1515.3
2016-Nov-30 15:33N 28°04' W 014°46'1614.9
2016-Nov-30 14:30N 28°02' W 014°28'1414.4
2016-Nov-30 13:32N 28°05' W 014°13'6 0.7
2016-Nov-30 04:33N 28°07' W 014°07'3115.5
2016-Nov-30 02:33N 28°03' W 014°41'1615.8
2016-Nov-30 01:33N 28°05' W 014°59'1616.0
2016-Nov-30 00:33N 28°06' W 015°17'7 7.4
2016-Nov-29 23:33N 28°08' W 015°25'0 0.0
2016-Nov-29 22:34N 28°08' W 015°25'0 0.0
2016-Nov-29 21:34N 28°08' W 015°25'0 0.0
2016-Nov-29 20:33N 28°08' W 015°25'0 0.0
2016-Nov-29 19:33N 28°08' W 015°25'0 0.0
2016-Nov-29 18:33N 28°08' W 015°25'3 3.2
2016-Nov-29 17:33N 28°07' W 015°22'1615.8
2016-Nov-29 16:33N 28°05' W 015°04'1515.4
2016-Nov-29 15:33N 28°04' W 014°47'1515.0
2016-Nov-29 14:33N 28°02' W 014°30'1514.5
2016-Nov-29 13:32N 28°04' W 014°13'29 2.6
2016-Nov-29 02:33N 28°03' W 014°46'1515.5
2016-Nov-29 01:33N 28°05' W 015°03'1616.0
2016-Nov-29 00:33N 28°07' W 015°21'4 3.8
2016-Nov-28 23:33N 28°08' W 015°25'0 0.0
2016-Nov-28 22:33N 28°08' W 015°25'0 0.0
2016-Nov-28 21:34N 28°08' W 015°25'0 0.0
2016-Nov-28 20:33N 28°08' W 015°25'0 0.0
2016-Nov-28 19:33N 28°08' W 015°25'0 0.0
2016-Nov-28 18:33N 28°08' W 015°25'0 0.0
2016-Nov-28 17:33N 28°08' W 015°25'0 0.0
2016-Nov-28 16:33N 28°08' W 015°25'0 0.0
2016-Nov-28 15:33N 28°08' W 015°25'0 0.0
2016-Nov-28 14:33N 28°08' W 015°25'0 0.0
2016-Nov-28 13:33N 28°08' W 015°25'0 0.0
2016-Nov-28 12:33N 28°08' W 015°25'0 0.0
2016-Nov-28 11:33N 28°08' W 015°25'  
Track history (hours):
 
Tides and Currents Weather Stations Pressure Air Temp Water Temp Dewpoint Dewpoint Depression Visibility Wind Speed Wind Dir Waves Ship Positions

Volcan De Tauce

Last reported at 2016-Dec-08 11:25 UTC. Time now 2016-Dec-08 11:57 UTC.
Position N 28°26' W 013°50'.

Length 120 m; draft 4.8 m.

Type: Passenger vessel. MMSI: 224761000.

Date/timePositionNaut miles runAvg speedWind from/ knotsBaromVisibWave heightAir tempDewpointWater temp
2016-Dec-08 11:25N 28°26' W 013°50'25 3.6
2016-Dec-08 04:32N 28°07' W 014°08'1515.0
2016-Dec-08 03:31N 28°01' W 014°23'1515.5
2016-Dec-08 02:34N 28°03' W 014°40'1615.6
2016-Dec-08 01:34N 28°05' W 014°58'1515.4
2016-Dec-08 00:34N 28°06' W 015°15'9 7.3
2016-Dec-07 23:21N 28°08' W 015°25'0 0.0
2016-Dec-07 22:31N 28°08' W 015°25'0 0.0
2016-Dec-07 21:33N 28°08' W 015°25'0 0.0
2016-Dec-07 20:33N 28°08' W 015°25'0 0.0
2016-Dec-07 19:33N 28°08' W 015°25'0 0.0
2016-Dec-07 18:33N 28°08' W 015°25'0 0.0
2016-Dec-07 17:33N 28°08' W 015°25'1212.0
2016-Dec-07 16:34N 28°06' W 015°11'1515.5
2016-Dec-07 15:34N 28°04' W 014°54'1615.8
2016-Dec-07 14:33N 28°02' W 014°36'2016.0
2016-Dec-07 13:18N 28°04' W 014°13'9 1.0
2016-Dec-07 04:33N 28°08' W 014°05'3414.7
2016-Dec-07 02:13N 28°03' W 014°43'1015.3
2016-Dec-07 01:33N 28°04' W 014°55'1515.6
2016-Dec-07 00:33N 28°06' W 015°12'1110.5
2016-Dec-06 23:29N 28°08' W 015°25'0 0.0
2016-Dec-06 22:26N 28°08' W 015°25'0 0.0
2016-Dec-06 21:33N 28°08' W 015°25'0 0.0
2016-Dec-06 20:33N 28°08' W 015°25'0 0.0
2016-Dec-06 18:33N 28°08' W 015°25'0 0.0
2016-Dec-06 17:33N 28°08' W 015°25'1312.8
2016-Dec-06 16:34N 28°06' W 015°11'1515.4
2016-Dec-06 15:33N 28°04' W 014°53'1615.6
2016-Dec-06 14:33N 28°02' W 014°36'2015.9
2016-Dec-06 13:18N 28°04' W 014°13'10 1.2
2016-Dec-06 05:17N 28°09' W 014°04'3914.4
2016-Dec-06 02:33N 28°03' W 014°48'1515.3
2016-Dec-06 01:34N 28°05' W 015°05'1515.2
2016-Dec-06 00:34N 28°07' W 015°22'2 2.4
2016-Dec-05 23:31N 28°08' W 015°25'0 0.0
2016-Dec-05 22:31N 28°08' W 015°25'0 0.0
2016-Dec-05 21:33N 28°08' W 015°25'0 0.0
2016-Dec-05 20:33N 28°08' W 015°25'0 0.0
2016-Dec-05 19:33N 28°08' W 015°25'0 0.0
2016-Dec-05 18:33N 28°08' W 015°25'0 0.0
2016-Dec-05 17:33N 28°08' W 015°25'0 0.0
2016-Dec-05 16:33N 28°08' W 015°25'0 0.0
2016-Dec-05 15:33N 28°08' W 015°25'0 0.0
2016-Dec-05 14:33N 28°08' W 015°25'0 0.0
2016-Dec-05 13:33N 28°08' W 015°25'0 0.0
2016-Dec-05 12:33N 28°08' W 015°25'0 0.0
2016-Dec-05 11:33N 28°08' W 015°25'0 0.0
2016-Dec-05 10:33N 28°08' W 015°25'0 0.0
2016-Dec-05 09:33N 28°08' W 015°25'0 0.0
2016-Dec-05 08:33N 28°08' W 015°25'0 0.0
2016-Dec-05 07:33N 28°08' W 015°25'0 0.0
2016-Dec-05 06:33N 28°08' W 015°25'0 0.0
2016-Dec-05 05:33N 28°08' W 015°25'0 0.0
2016-Dec-05 04:33N 28°08' W 015°25'0 0.0
2016-Dec-05 03:33N 28°08' W 015°25'0 0.0
2016-Dec-05 02:33N 28°08' W 015°25'0 0.0
2016-Dec-05 01:33N 28°08' W 015°25'0 0.0
2016-Dec-05 00:33N 28°08' W 015°25'0 0.0
2016-Dec-04 23:33N 28°08' W 015°25'0 0.0
2016-Dec-04 22:33N 28°08' W 015°25'0 0.0
2016-Dec-04 21:33N 28°08' W 015°25'0 0.0
2016-Dec-04 20:33N 28°08' W 015°25'0 0.0
2016-Dec-04 19:33N 28°08' W 015°25'0 0.0
2016-Dec-04 18:33N 28°08' W 015°25'0 0.0
2016-Dec-04 17:33N 28°08' W 015°25'0 0.0
2016-Dec-04 16:33N 28°08' W 015°25'0 0.0
2016-Dec-04 15:33N 28°08' W 015°25'0 0.0
2016-Dec-04 14:33N 28°08' W 015°25'0 0.0
2016-Dec-04 13:33N 28°08' W 015°25'0 0.0
2016-Dec-04 12:33N 28°08' W 015°25'0 0.0
2016-Dec-04 11:33N 28°08' W 015°25'0 0.0
2016-Dec-04 10:33N 28°08' W 015°25'0 0.0
2016-Dec-04 09:33N 28°08' W 015°25'0 0.0
2016-Dec-04 08:33N 28°08' W 015°25'0 0.0
2016-Dec-04 07:33N 28°08' W 015°25'0 0.0
2016-Dec-04 06:33N 28°08' W 015°25'0 0.0
2016-Dec-04 05:33N 28°08' W 015°25'0 0.0
2016-Dec-04 04:33N 28°08' W 015°25'0 0.0
2016-Dec-04 03:33N 28°08' W 015°25'0 0.0
2016-Dec-04 02:33N 28°08' W 015°25'0 0.0
2016-Dec-04 01:33N 28°08' W 015°25'0 0.0
2016-Dec-04 00:33N 28°08' W 015°25'0 0.0
2016-Dec-03 23:33N 28°08' W 015°25'0 0.0
2016-Dec-03 22:33N 28°08' W 015°25'0 0.0
2016-Dec-03 21:33N 28°08' W 015°25'0 0.0
2016-Dec-03 20:33N 28°08' W 015°25'0 0.0
2016-Dec-03 19:33N 28°08' W 015°25'0 0.0
2016-Dec-03 18:33N 28°08' W 015°25'4 4.0
2016-Dec-03 17:33N 28°07' W 015°21'1615.7
2016-Dec-03 16:33N 28°05' W 015°03'1515.3
2016-Dec-03 15:33N 28°03' W 014°46'1515.0
2016-Dec-03 14:33N 28°02' W 014°29'1514.4
2016-Dec-03 13:33N 28°04' W 014°12'3014.0
2016-Dec-03 11:24N 28°26' W 013°49'21 3.5
2016-Dec-03 05:22N 28°09' W 014°03'1616.4
2016-Dec-03 04:22N 28°01' W 014°19'1415.7
2016-Dec-03 03:28N 28°02' W 014°35'1516.1
2016-Dec-03 02:33N 28°04' W 014°52'1615.8
2016-Dec-03 01:33N 28°06' W 015°10'1413.6
2016-Dec-03 00:33N 28°08' W 015°25'0 0.1
2016-Dec-02 23:33N 28°08' W 015°25'0 0.0
2016-Dec-02 22:33N 28°08' W 015°25'0 0.0
2016-Dec-02 21:33N 28°08' W 015°25'0 0.0
2016-Dec-02 20:33N 28°08' W 015°25'0 0.0
2016-Dec-02 19:33N 28°08' W 015°25'0 0.0
2016-Dec-02 18:33N 28°08' W 015°25'3 2.9
2016-Dec-02 17:33N 28°07' W 015°22'1515.5
2016-Dec-02 16:33N 28°06' W 015°04'1514.8
2016-Dec-02 15:33N 28°04' W 014°48'1514.9
2016-Dec-02 14:33N 28°02' W 014°31'1514.9
2016-Dec-02 13:33N 28°04' W 014°14'1515.6
2016-Dec-02 12:33N 28°11' W 013°59'3 0.4
2016-Dec-02 05:21N 28°13' W 013°56'2015.9
2016-Dec-02 04:07N 28°03' W 014°15'915.4
2016-Dec-02 03:33N 28°01' W 014°25'1615.6
2016-Dec-02 02:33N 28°03' W 014°42'1615.7
2016-Dec-02 01:33N 28°05' W 014°60'1615.8
2016-Dec-02 00:33N 28°06' W 015°18'7 6.6
2016-Dec-01 23:33N 28°08' W 015°25'0 0.0
2016-Dec-01 22:33N 28°08' W 015°25'0 0.0
2016-Dec-01 21:33N 28°08' W 015°25'0 0.0
2016-Dec-01 20:33N 28°08' W 015°25'0 0.0
2016-Dec-01 19:33N 28°08' W 015°25'0 0.0
2016-Dec-01 18:33N 28°08' W 015°25'3 3.0
2016-Dec-01 17:33N 28°07' W 015°22'1615.5
2016-Dec-01 16:33N 28°05' W 015°04'1515.3
2016-Dec-01 15:33N 28°03' W 014°47'1515.2
2016-Dec-01 14:33N 28°02' W 014°30'1515.2
2016-Dec-01 13:33N 28°04' W 014°13'1616.0
2016-Dec-01 12:33N 28°12' W 013°57'17 2.7
2016-Dec-01 06:25N 28°27' W 013°50'5413.5
2016-Dec-01 02:25N 28°03' W 014°45'1416.0
2016-Dec-01 01:33N 28°05' W 015°00'1616.0
2016-Dec-01 00:33N 28°06' W 015°18'6 6.2
2016-Nov-30 23:33N 28°08' W 015°25'0 0.0
2016-Nov-30 22:33N 28°08' W 015°25'0 0.0
2016-Nov-30 21:33N 28°08' W 015°25'0 0.0
2016-Nov-30 20:33N 28°08' W 015°25'0 0.0
2016-Nov-30 19:33N 28°08' W 015°25'0 0.0
2016-Nov-30 18:34N 28°08' W 015°25'4 3.9
2016-Nov-30 17:33N 28°07' W 015°21'1515.4
2016-Nov-30 16:33N 28°05' W 015°03'1515.3
2016-Nov-30 15:33N 28°04' W 014°46'1614.9
2016-Nov-30 14:30N 28°02' W 014°28'1414.4
2016-Nov-30 13:32N 28°05' W 014°13'6 0.7
2016-Nov-30 04:33N 28°07' W 014°07'3115.5
2016-Nov-30 02:33N 28°03' W 014°41'1615.8
2016-Nov-30 01:33N 28°05' W 014°59'1616.0
2016-Nov-30 00:33N 28°06' W 015°17'7 7.4
2016-Nov-29 23:33N 28°08' W 015°25'0 0.0
2016-Nov-29 22:34N 28°08' W 015°25'0 0.0
2016-Nov-29 21:34N 28°08' W 015°25'0 0.0
2016-Nov-29 20:33N 28°08' W 015°25'0 0.0
2016-Nov-29 19:33N 28°08' W 015°25'0 0.0
2016-Nov-29 18:33N 28°08' W 015°25'3 3.2
2016-Nov-29 17:33N 28°07' W 015°22'1615.8
2016-Nov-29 16:33N 28°05' W 015°04'1515.4
2016-Nov-29 15:33N 28°04' W 014°47'1515.0
2016-Nov-29 14:33N 28°02' W 014°30'1514.5
2016-Nov-29 13:32N 28°04' W 014°13'29 2.6
2016-Nov-29 02:33N 28°03' W 014°46'1515.5
2016-Nov-29 01:33N 28°05' W 015°03'1616.0
2016-Nov-29 00:33N 28°07' W 015°21'4 3.8
2016-Nov-28 23:33N 28°08' W 015°25'0 0.0
2016-Nov-28 22:33N 28°08' W 015°25'0 0.0
2016-Nov-28 21:34N 28°08' W 015°25'0 0.0
2016-Nov-28 20:33N 28°08' W 015°25'0 0.0
2016-Nov-28 19:33N 28°08' W 015°25'0 0.0
2016-Nov-28 18:33N 28°08' W 015°25'0 0.0
2016-Nov-28 17:33N 28°08' W 015°25'0 0.0
2016-Nov-28 16:33N 28°08' W 015°25'0 0.0
2016-Nov-28 15:33N 28°08' W 015°25'0 0.0
2016-Nov-28 14:33N 28°08' W 015°25'0 0.0
2016-Nov-28 13:33N 28°08' W 015°25'0 0.0
2016-Nov-28 12:33N 28°08' W 015°25'0 0.0
2016-Nov-28 11:33N 28°08' W 015°25'  

Dump ship's entire track history